首页
METAR-TAF:

METAR-TAF

机场 :

米登霍爾皇家空軍基地

Mildenhall, 英格兰

纬度: 52-22N, 经度: 000-29E, 海拔: 10米

当前天气观测

该预报发布于54分钟前的00:55 UTC
静风
温度 5°C
湿度 81%
气压 1028 hPa
能见度10公里或以上
天空无云

METAR: EGUN 070055Z 00000KT 9999 CLR 05/02 A3035 RMK AO2A SLP277 WND DATA ESTMD ALSTG/SLP ESTMD RVRNO

时间: 02:49 (01:49 UTC)

预报

该预报发布于5小时和49分钟前的20:00 UTC
预报有效从06日的 20点(UTC)到 08日的 02点(UTC)
风速6节,风向多变
能见度10公里或以上
少量云层高于6000英尺
成为
从 07日的 08点(UTC)到 07日的 09点(UTC)
风速10节,风向东南,有时为15节阵风
能见度10公里或以上
少量云层高于6000英尺
成为
从 07日的 17点(UTC)到 07日的 18点(UTC)
风速9节,风向东南
能见度10公里或以上
多云层高于8000英尺

TAF: EGUN 062000Z 0620/0802 VRB06KT 9999 FEW060 QNH3026INS BECMG 0708/0709 13010G15KT 9999 FEW060 QNH3034INS BECMG 0717/0718 13009KT 9999 BKN080 QNH3026INS TX17/0714Z TN04/0706Z

超过4000个机场的气象观测和天气预报(METAR&TAF报告)。

可查询的气象台以黄色和红色小点在地图上表示。

将鼠标移到小点上方,可查看气象台名称。

然后点击查看天气观测和预报。

如需切换地图:点击带黑十字的绿色按钮放大地图;点击带横线的绿色按钮缩小地图;或者点击绿色箭头查看邻近地区的地图。


METAR-TAF: